Time;durP1;ratioP1;P1;durP2;ratioP2;P2;SDS_P1;SDS_P2;PMS_P1;PMS_P2;Temp;Humidity;BMP_temperature;BMP_pressure;BME280_temperature;BME280_humidity;BME280_pressure;Samples;Min_cycle;Max_cycle;Signal;HPM_P1;HPM_P2
2024/02/18 00:02:20;;;;;;;14.05;2.53;;;;;;;0.26;100.00;102707.69;5096299;27;20417;-77
2024/02/18 00:04:48;;;;;;;13.32;2.50;;;;;;;0.33;100.00;102711.41;5093775;28;20420;-76
2024/02/18 00:07:23;;;;;;;19.07;3.00;;;;;;;0.38;100.00;102710.09;5093068;28;20451;-77
2024/02/18 00:09:56;;;;;;;17.95;2.83;;;;;;;0.41;100.00;102707.06;5110274;27;20835;-77
2024/02/18 00:12:30;;;;;;;21.25;2.70;;;;;;;0.42;100.00;102706.91;5091973;28;20897;-77
2024/02/18 00:15:03;;;;;;;12.95;2.50;;;;;;;0.43;100.00;102708.59;5097115;27;20424;-76
2024/02/18 00:17:36;;;;;;;11.77;2.53;;;;;;;0.45;100.00;102703.06;5110681;27;20432;-77
2024/02/18 00:20:11;;;;;;;13.23;2.50;;;;;;;0.44;100.00;102693.34;5096348;28;20925;-77
2024/02/18 00:22:46;;;;;;;18.02;2.92;;;;;;;0.48;100.00;102697.38;5095130;28;20424;-77
2024/02/18 00:25:20;;;;;;;22.10;2.95;;;;;;;0.43;100.00;102692.53;5094881;28;20428;-77
2024/02/18 00:27:53;;;;;;;14.88;2.33;;;;;;;0.42;100.00;102687.34;5095435;28;20856;-77
2024/02/18 00:30:27;;;;;;;13.07;2.22;;;;;;;0.45;100.00;102687.00;5094245;28;20420;-77
2024/02/18 00:32:55;;;;;;;12.27;2.25;;;;;;;0.44;100.00;102693.34;5093435;28;20496;-77
2024/02/18 00:35:28;;;;;;;12.80;2.38;;;;;;;0.39;100.00;102701.88;5096868;28;20423;-77
2024/02/18 00:38:03;;;;;;;16.17;3.23;;;;;;;0.46;100.00;102686.00;5096044;28;20410;-77
2024/02/18 00:40:31;;;;;;;14.33;3.00;;;;;;;0.48;100.00;102676.81;5095482;28;20427;-77
2024/02/18 00:43:04;;;;;;;18.30;2.42;;;;;;;0.50;100.00;102698.91;5094495;28;20422;-77
2024/02/18 00:45:37;;;;;;;20.13;3.03;;;;;;;0.49;100.00;102666.91;5097691;28;20427;-77
2024/02/18 00:48:06;;;;;;;19.75;2.83;;;;;;;0.46;100.00;102669.94;5099590;28;20427;-77
2024/02/18 00:50:40;;;;;;;15.35;3.00;;;;;;;0.35;100.00;102692.50;5093363;28;20418;-77
2024/02/18 00:53:14;;;;;;;17.08;2.65;;;;;;;0.40;100.00;102690.16;5094343;28;20431;-77
2024/02/18 00:55:48;;;;;;;11.52;2.58;;;;;;;0.52;100.00;102689.88;5095248;28;20416;-77
2024/02/18 00:58:16;;;;;;;18.25;3.00;;;;;;;0.53;100.00;102692.38;5092326;28;20455;-77
2024/02/18 01:00:49;;;;;;;19.17;2.80;;;;;;;0.54;100.00;102679.81;5095662;28;20954;-77
2024/02/18 01:03:22;;;;;;;15.97;2.83;;;;;;;0.52;100.00;102690.69;5096392;28;20472;-77
2024/02/18 01:05:55;;;;;;;16.30;2.70;;;;;;;0.56;100.00;102683.19;5095327;28;20430;-77
2024/02/18 01:08:30;;;;;;;14.75;2.70;;;;;;;0.51;100.00;102694.38;5094413;28;20776;-77
2024/02/18 01:11:03;;;;;;;17.45;3.10;;;;;;;0.49;100.00;102693.72;5098512;28;20430;-77
2024/02/18 01:13:36;;;;;;;17.58;2.88;;;;;;;0.42;100.00;102677.44;5095606;28;20416;-77
2024/02/18 01:16:10;;;;;;;18.97;2.87;;;;;;;0.45;100.00;102671.75;5094838;28;20504;-76
2024/02/18 01:18:43;;;;;;;18.00;2.88;;;;;;;0.44;100.00;102671.91;5093249;28;20920;-77
2024/02/18 01:21:18;;;;;;;17.08;3.00;;;;;;;0.43;100.00;102675.59;5097914;28;20428;-77
2024/02/18 01:23:53;;;;;;;15.45;2.90;;;;;;;0.46;100.00;102673.44;5099462;28;20418;-77
2024/02/18 01:26:26;;;;;;;16.38;2.92;;;;;;;0.49;100.00;102673.09;5100932;28;20437;-76
2024/02/18 01:28:59;;;;;;;17.53;3.40;;;;;;;0.57;100.00;102666.13;5097347;28;20410;-77
2024/02/18 01:31:32;;;;;;;20.45;3.40;;;;;;;0.72;100.00;102660.91;5096129;28;20891;-77
2024/02/18 01:34:05;;;;;;;15.90;3.17;;;;;;;0.76;100.00;102648.88;5100483;28;20474;-76
2024/02/18 01:36:39;;;;;;;21.48;3.10;;;;;;;0.89;100.00;102646.53;5098598;28;20903;-76
2024/02/18 01:39:13;;;;;;;19.60;2.92;;;;;;;0.92;100.00;102638.16;5097134;28;20428;-77
2024/02/18 01:41:42;;;;;;;19.50;3.27;;;;;;;0.96;100.00;102630.63;5096342;27;20516;-77
2024/02/18 01:44:15;;;;;;;13.38;2.70;;;;;;;1.01;100.00;102625.63;5097625;28;20435;-77
2024/02/18 01:46:44;;;;;;;15.10;2.80;;;;;;;0.98;100.00;102616.06;5097431;28;20422;-77
2024/02/18 01:49:17;;;;;;;17.95;3.55;;;;;;;1.13;100.00;102616.22;5096791;28;21129;-76
2024/02/18 01:51:46;;;;;;;15.05;2.97;;;;;;;1.05;100.00;102610.88;5098448;28;20421;-77
2024/02/18 01:54:21;;;;;;;15.15;3.03;;;;;;;1.06;100.00;102617.88;5102054;28;20429;-77
2024/02/18 01:56:54;;;;;;;18.50;3.35;;;;;;;1.08;100.00;102604.31;5103286;28;20420;-76
2024/02/18 01:59:22;;;;;;;18.98;3.38;;;;;;;1.07;100.00;102599.97;5100034;28;21280;-77
2024/02/18 02:01:50;;;;;;;15.68;3.50;;;;;;;0.98;100.00;102597.28;5099576;28;21364;-77
2024/02/18 02:04:24;;;;;;;19.02;3.50;;;;;;;1.00;100.00;102599.81;5102815;28;20414;-77
2024/02/18 02:06:59;;;;;;;12.97;3.00;;;;;;;0.96;100.00;102591.25;5099959;28;20424;-77
2024/02/18 02:09:34;;;;;;;15.80;3.30;;;;;;;0.85;100.00;102587.06;5100408;28;20410;-77
2024/02/18 02:12:08;;;;;;;12.13;2.90;;;;;;;0.85;100.00;102587.06;5096316;28;20449;-77
2024/02/18 02:14:41;;;;;;;19.77;3.60;;;;;;;0.76;100.00;102577.38;5117532;27;20431;-76
2024/02/18 02:17:15;;;;;;;15.52;3.42;;;;;;;0.72;100.00;102584.06;5101809;28;20416;-76
2024/02/18 02:19:43;;;;;;;17.50;3.50;;;;;;;0.79;100.00;102584.22;5099000;28;21088;-77
2024/02/18 02:22:16;;;;;;;17.30;3.55;;;;;;;0.70;100.00;102585.22;5099781;28;20420;-77
2024/02/18 02:24:51;;;;;;;18.42;3.47;;;;;;;0.82;100.00;102583.88;5110161;27;20461;-77
2024/02/18 02:27:30;;;;;;;17.97;4.10;;;;;;;0.93;100.00;102588.09;5095990;27;20442;-77
2024/02/18 02:30:05;;;;;;;16.27;3.88;;;;;;;0.95;100.00;102584.22;5101883;28;20422;-77
2024/02/18 02:32:39;;;;;;;17.77;3.90;;;;;;;0.98;100.00;102583.03;5096860;28;20420;-77
2024/02/18 02:35:12;;;;;;;18.95;3.75;;;;;;;1.04;100.00;102571.66;5098539;28;20420;-77
2024/02/18 02:37:45;;;;;;;15.10;4.22;;;;;;;1.05;100.00;102572.47;5095853;28;20430;-76
2024/02/18 02:40:18;;;;;;;17.80;3.90;;;;;;;0.99;100.00;102582.03;5096973;28;20431;-77
2024/02/18 02:42:51;;;;;;;17.00;4.22;;;;;;;1.09;100.00;102577.34;5111396;27;20912;-77
2024/02/18 02:45:21;;;;;;;22.00;3.93;;;;;;;1.17;100.00;102573.78;5101519;28;20425;-77
2024/02/18 02:47:54;;;;;;;15.13;3.50;;;;;;;1.35;100.00;102562.84;5098783;28;20429;-77
2024/02/18 02:50:27;;;;;;;15.55;3.83;;;;;;;1.31;100.00;102556.16;5097338;28;20936;-77
2024/02/18 02:53:01;;;;;;;19.65;3.88;;;;;;;1.28;100.00;102549.28;5097223;28;20424;-76
2024/02/18 02:55:34;;;;;;;14.70;3.78;;;;;;;1.33;100.00;102546.13;5097782;28;20906;-77
2024/02/18 02:58:07;;;;;;;16.63;3.55;;;;;;;1.26;100.00;102547.81;5096624;28;20420;-77
2024/02/18 03:00:37;;;;;;;16.02;3.58;;;;;;;1.39;100.00;102542.72;5098301;28;20424;-77
2024/02/18 03:03:10;;;;;;;18.77;4.13;;;;;;;1.34;100.00;102548.63;5097617;28;20420;-77
2024/02/18 03:05:43;;;;;;;16.55;3.88;;;;;;;1.39;100.00;102542.72;5097182;28;20433;-76
2024/02/18 03:08:16;;;;;;;19.85;4.47;;;;;;;1.41;100.00;102529.13;5094965;28;21165;-77
2024/02/18 03:10:50;;;;;;;15.55;4.10;;;;;;;1.35;100.00;102530.66;5095464;28;20435;-76
2024/02/18 03:13:23;;;;;;;18.13;4.15;;;;;;;1.39;100.00;102526.63;5098458;28;21094;-77
2024/02/18 03:15:58;;;;;;;17.02;3.63;;;;;;;1.38;100.00;102518.75;5114611;27;20427;-76
2024/02/18 03:18:26;;;;;;;19.23;4.15;;;;;;;1.33;100.00;102514.75;5097780;28;20428;-78
2024/02/18 03:20:59;;;;;;;17.50;4.17;;;;;;;1.33;100.00;102516.59;5099179;28;20487;-77
2024/02/18 03:23:32;;;;;;;15.27;3.72;;;;;;;1.26;100.00;102510.25;5094958;28;20422;-77
2024/02/18 03:26:05;;;;;;;16.37;3.77;;;;;;;1.29;100.00;102513.41;5108396;27;20467;-77
2024/02/18 03:28:38;;;;;;;17.80;4.30;;;;;;;1.22;100.00;102509.75;5095759;28;20423;-77
2024/02/18 03:31:17;;;;;;;18.40;4.18;;;;;;;1.19;100.00;102510.13;5097712;28;20461;-77
2024/02/18 03:33:51;;;;;;;20.05;4.18;;;;;;;1.20;100.00;102503.72;5097447;28;20421;-77
2024/02/18 03:36:24;;;;;;;17.92;4.10;;;;;;;1.24;100.00;102501.53;5094436;28;20420;-76
2024/02/18 03:38:57;;;;;;;17.53;4.03;;;;;;;1.36;100.00;102503.66;5092035;28;20418;-77
2024/02/18 03:41:30;;;;;;;17.63;4.18;;;;;;;1.32;100.00;102504.19;5102915;28;21139;-77
2024/02/18 03:44:04;;;;;;;15.40;3.70;;;;;;;1.36;100.00;102510.88;5093171;28;20447;-77
2024/02/18 03:46:39;;;;;;;18.38;4.22;;;;;;;1.38;100.00;102508.84;5093360;28;20757;-77
2024/02/18 03:49:12;;;;;;;19.10;4.43;;;;;;;1.34;100.00;102494.97;5094890;28;20915;-77
2024/02/18 03:51:45;;;;;;;21.20;4.70;;;;;;;1.28;100.00;102492.97;5094446;28;20463;-77
2024/02/18 03:54:18;;;;;;;16.90;4.30;;;;;;;1.30;100.00;102482.91;5094119;28;20522;-77
2024/02/18 03:56:52;;;;;;;18.95;4.22;;;;;;;1.29;100.00;102481.22;5098807;28;20432;-77
2024/02/18 03:59:26;;;;;;;12.88;4.07;;;;;;;1.35;100.00;102485.06;5093517;28;20420;-77
2024/02/18 04:02:01;;;;;;;19.45;4.40;;;;;;;1.27;100.00;102475.22;5094267;28;20422;-77
2024/02/18 04:04:34;;;;;;;18.25;4.72;;;;;;;1.27;100.00;102477.03;5096629;28;20767;-77
2024/02/18 04:07:09;;;;;;;16.30;4.05;;;;;;;1.21;100.00;102473.22;5095035;28;20419;-77
2024/02/18 04:09:42;;;;;;;17.45;4.30;;;;;;;1.22;100.00;102479.44;5094819;28;20432;-77
2024/02/18 04:12:15;;;;;;;18.38;4.80;;;;;;;1.21;100.00;102477.75;5109792;27;20428;-76
2024/02/18 04:14:48;;;;;;;18.27;4.70;;;;;;;1.30;100.00;102474.88;5096002;28;20430;-77
2024/02/18 04:17:22;;;;;;;21.63;4.88;;;;;;;1.34;100.00;102465.47;5096903;28;20420;-77
2024/02/18 04:19:56;;;;;;;18.88;5.10;;;;;;;1.44;100.00;102459.88;5093308;28;20412;-77
2024/02/18 04:22:29;;;;;;;17.25;4.35;;;;;;;1.51;100.00;102460.84;5096006;28;20919;-77
2024/02/18 04:25:02;;;;;;;15.37;4.40;;;;;;;1.57;100.00;102461.16;5094637;28;20435;-77
2024/02/18 04:27:35;;;;;;;17.88;4.88;;;;;;;1.60;100.00;102455.44;5098647;28;20754;-77
2024/02/18 04:30:09;;;;;;;18.08;4.57;;;;;;;1.60;100.00;102458.97;5094062;28;20428;-77
2024/02/18 04:32:44;;;;;;;17.33;4.70;;;;;;;1.74;100.00;102460.06;5094283;28;20437;-77
2024/02/18 04:35:12;;;;;;;19.42;4.70;;;;;;;1.72;100.00;102462.06;5097067;27;20426;-76
2024/02/18 04:37:40;;;;;;;21.63;5.20;;;;;;;1.77;100.00;102458.84;5093765;28;20429;-77
2024/02/18 04:40:14;;;;;;;15.53;4.57;;;;;;;1.77;100.00;102451.66;5094185;28;20853;-77
2024/02/18 04:42:47;;;;;;;19.70;4.53;;;;;;;1.78;100.00;102447.09;5095227;28;20425;-77
2024/02/18 04:45:20;;;;;;;22.73;4.90;;;;;;;1.78;100.00;102450.66;5092579;28;20420;-77
2024/02/18 04:47:54;;;;;;;21.08;5.00;;;;;;;1.84;100.00;102447.25;5094339;28;20432;-76
2024/02/18 04:50:23;;;;;;;14.50;4.40;;;;;;;1.81;100.00;102444.06;5091800;28;20420;-77
2024/02/18 04:52:56;;;;;;;22.58;5.20;;;;;;;1.84;100.00;102438.38;5095743;28;20425;-77
2024/02/18 04:55:29;;;;;;;18.50;5.90;;;;;;;1.94;100.00;102438.94;5094626;28;20999;-77
2024/02/18 04:57:59;;;;;;;22.00;6.27;;;;;;;1.93;100.00;102434.59;5096521;28;20435;-76
2024/02/18 05:00:27;;;;;;;18.77;5.80;;;;;;;2.06;100.00;102433.16;5096759;28;20438;-77
2024/02/18 05:03:02;;;;;;;15.60;5.07;;;;;;;1.94;100.00;102428.22;5094523;28;20427;-77
2024/02/18 05:05:35;;;;;;;16.20;5.53;;;;;;;1.89;100.00;102425.22;5097645;28;20427;-77
2024/02/18 05:08:08;;;;;;;19.90;5.13;;;;;;;1.93;100.00;102425.72;5127144;27;21244;-76
2024/02/18 05:10:41;;;;;;;15.97;4.80;;;;;;;1.98;100.00;102423.31;5102674;28;20430;-77
2024/02/18 05:13:15;;;;;;;14.30;4.60;;;;;;;2.05;100.00;102426.97;5093167;28;20770;-77
2024/02/18 05:15:51;;;;;;;18.90;4.93;;;;;;;2.08;100.00;102418.53;5096426;28;20430;-77
2024/02/18 05:18:25;;;;;;;20.02;5.53;;;;;;;2.01;100.00;102417.59;5094766;28;20669;-77
2024/02/18 05:20:59;;;;;;;18.08;4.97;;;;;;;1.99;100.00;102412.41;5112111;27;20422;-76
2024/02/18 05:23:27;;;;;;;17.92;4.63;;;;;;;2.01;100.00;102418.41;5097504;28;20420;-77
2024/02/18 05:26:00;;;;;;;17.00;4.70;;;;;;;2.13;100.00;102408.09;5092404;28;20430;-76
2024/02/18 05:28:33;;;;;;;16.92;4.22;;;;;;;2.12;100.00;102397.53;5094702;28;20424;-76
2024/02/18 05:31:22;;;;;;;14.77;4.30;;;;;;;2.21;100.00;102391.09;5095999;28;20424;-77
2024/02/18 05:33:56;;;;;;;17.03;4.57;;;;;;;2.10;100.00;102388.81;5095820;28;20497;-77
2024/02/18 05:36:29;;;;;;;19.83;4.75;;;;;;;2.14;100.00;102387.44;5094928;28;20433;-77
2024/02/18 05:39:03;;;;;;;13.48;4.63;;;;;;;2.27;100.00;102387.66;5097969;28;20448;-76
2024/02/18 05:41:36;;;;;;;18.60;5.00;;;;;;;2.25;100.00;102378.97;5094437;28;20428;-77
2024/02/18 05:44:09;;;;;;;15.85;4.80;;;;;;;2.33;100.00;102384.22;5098676;28;20423;-77
2024/02/18 05:46:42;;;;;;;14.90;4.63;;;;;;;2.29;100.00;102374.88;5092705;28;20427;-77
2024/02/18 05:49:17;;;;;;;16.17;4.97;;;;;;;2.35;100.00;102363.41;5094152;28;20428;-77
2024/02/18 05:51:52;;;;;;;11.38;4.50;;;;;;;2.43;100.00;102365.19;5093098;28;20443;-76
2024/02/18 05:54:26;;;;;;;15.63;4.33;;;;;;;2.41;100.00;102356.44;5098492;28;20540;-76
2024/02/18 05:56:59;;;;;;;15.77;4.60;;;;;;;2.47;100.00;102347.66;5094597;28;20430;-77
2024/02/18 05:59:32;;;;;;;14.75;4.40;;;;;;;2.40;100.00;102344.03;5094017;28;20800;-77
2024/02/18 06:02:05;;;;;;;16.90;4.90;;;;;;;2.41;100.00;102339.50;5091387;28;20424;-76
2024/02/18 06:04:40;;;;;;;14.63;4.85;;;;;;;2.45;100.00;102333.56;5095102;28;20416;-77
2024/02/18 06:07:13;;;;;;;14.43;4.32;;;;;;;2.48;100.00;102341.25;5093420;28;20417;-77
2024/02/18 06:09:41;;;;;;;16.50;4.80;;;;;;;2.47;100.00;102336.91;5100889;28;21289;-77
2024/02/18 06:12:15;;;;;;;16.92;4.82;;;;;;;2.52;100.00;102321.06;5099950;27;20439;-77
2024/02/18 06:14:48;;;;;;;17.45;4.88;;;;;;;2.53;100.00;102311.97;5101285;28;20458;-76
2024/02/18 06:17:21;;;;;;;15.70;5.10;;;;;;;2.59;100.00;102315.78;5099437;27;20774;-77
2024/02/18 06:19:50;;;;;;;17.25;4.50;;;;;;;2.75;100.00;102313.91;5097435;28;20444;-77
2024/02/18 06:22:24;;;;;;;15.00;4.97;;;;;;;2.75;100.00;102316.59;5098756;27;20431;-77
2024/02/18 06:24:57;;;;;;;18.33;5.00;;;;;;;2.69;100.00;102310.97;5097919;28;20440;-77
2024/02/18 06:27:30;;;;;;;14.93;4.90;;;;;;;2.73;100.00;102319.47;5100479;28;20433;-77
2024/02/18 06:30:04;;;;;;;18.27;5.43;;;;;;;2.83;100.00;102306.59;5096448;28;20510;-77
2024/02/18 06:32:38;;;;;;;17.13;5.68;;;;;;;2.77;100.00;102304.63;5096507;27;20458;-77
2024/02/18 06:35:12;;;;;;;20.80;5.95;;;;;;;2.82;100.00;102298.72;5094374;28;20428;-77
2024/02/18 06:37:45;;;;;;;16.08;5.50;;;;;;;2.84;100.00;102294.78;5094104;28;20427;-77
2024/02/18 06:40:18;;;;;;;16.52;5.80;;;;;;;2.89;100.00;102300.44;5098427;28;20631;-77
2024/02/18 06:42:47;;;;;;;17.13;5.90;;;;;;;2.87;100.00;102297.13;5097612;28;20422;-77
2024/02/18 06:45:21;;;;;;;17.17;5.85;;;;;;;2.91;100.00;102294.88;5099227;28;20425;-76
2024/02/18 06:47:49;;;;;;;17.95;5.75;;;;;;;2.89;100.00;102286.16;5096710;28;20435;-77
2024/02/18 06:50:23;;;;;;;16.05;5.55;;;;;;;2.94;100.00;102293.66;5094177;28;20447;-77
2024/02/18 06:52:57;;;;;;;15.60;5.80;;;;;;;2.96;100.00;102286.25;5095995;27;20811;-77
2024/02/18 06:55:30;;;;;;;17.00;5.80;;;;;;;2.94;100.00;102282.91;5096568;27;20430;-77
2024/02/18 06:58:03;;;;;;;18.25;5.75;;;;;;;2.96;100.00;102276.31;5097746;28;20431;-77
2024/02/18 07:00:32;;;;;;;19.08;6.20;;;;;;;3.00;100.00;102258.78;5114539;27;20420;-77
2024/02/18 07:03:06;;;;;;;20.15;6.78;;;;;;;3.11;100.00;102259.28;5098027;28;20494;-77
2024/02/18 07:05:40;;;;;;;19.45;6.75;;;;;;;3.23;100.00;102247.00;5098855;28;20441;-76
2024/02/18 07:08:13;;;;;;;15.98;6.10;;;;;;;3.29;100.00;102242.72;5097006;28;20423;-77
2024/02/18 07:10:46;;;;;;;17.65;6.30;;;;;;;3.15;100.00;102242.59;5094270;28;20968;-77
2024/02/18 07:13:19;;;;;;;20.67;6.40;;;;;;;3.24;100.00;102237.91;5095890;27;20928;-77
2024/02/18 07:15:53;;;;;;;16.73;6.53;;;;;;;3.23;100.00;102231.72;5097443;28;20750;-77
2024/02/18 07:18:26;;;;;;;17.48;6.20;;;;;;;3.34;100.00;102222.28;5096256;28;20412;-77
2024/02/18 07:20:56;;;;;;;21.83;6.55;;;;;;;3.28;100.00;102219.53;5098837;28;20494;-77
2024/02/18 07:23:29;;;;;;;17.63;6.20;;;;;;;3.30;100.00;102230.91;5112166;27;20421;-77
2024/02/18 07:25:57;;;;;;;19.60;7.10;;;;;;;3.42;100.00;102226.69;5112126;27;20983;-77
2024/02/18 07:28:26;;;;;;;19.42;6.90;;;;;;;3.39;100.00;102233.28;5095124;28;20443;-77
2024/02/18 07:30:59;;;;;;;19.70;7.15;;;;;;;3.45;100.00;102226.28;5094897;28;20432;-77
2024/02/18 07:33:27;;;;;;;17.52;7.07;;;;;;;3.51;100.00;102222.00;5094913;28;20434;-77
2024/02/18 07:36:02;;;;;;;22.02;7.15;;;;;;;3.52;100.00;102216.44;5095911;28;20420;-77
2024/02/18 07:38:36;;;;;;;17.05;6.85;;;;;;;3.57;100.00;102219.34;5100125;28;20433;-77
2024/02/18 07:41:05;;;;;;;19.65;7.30;;;;;;;3.62;100.00;102210.72;5112489;27;20431;-77
2024/02/18 07:43:38;;;;;;;20.05;7.18;;;;;;;3.62;100.00;102210.72;5093975;28;20906;-77
2024/02/18 07:46:12;;;;;;;17.98;6.82;;;;;;;3.55;100.00;102204.44;5127132;27;20430;-77
2024/02/18 07:48:45;;;;;;;19.48;6.70;;;;;;;3.65;100.00;102207.63;5096650;28;20779;-77
2024/02/18 07:51:15;;;;;;;18.85;7.43;;;;;;;3.63;100.00;102203.44;5098356;28;20870;-77
2024/02/18 07:53:48;;;;;;;19.03;7.27;;;;;;;3.64;100.00;102197.03;5096664;28;20559;-77
2024/02/18 07:56:21;;;;;;;21.40;7.25;;;;;;;3.71;100.00;102189.84;5093740;27;20428;-77
2024/02/18 07:58:54;;;;;;;22.37;7.17;;;;;;;3.68;100.00;102184.84;5093515;27;20526;-77
2024/02/18 08:01:28;;;;;;;22.08;7.50;;;;;;;3.84;100.00;102184.56;5102066;28;20543;-77
2024/02/18 08:03:57;;;;;;;17.42;7.30;;;;;;;3.77;100.00;102178.31;5079810;27;20886;-77
2024/02/18 08:06:32;;;;;;;23.73;7.68;;;;;;;3.85;100.00;102186.22;5061952;27;20416;-78
2024/02/18 08:09:05;;;;;;;18.75;6.75;;;;;;;3.82;100.00;102173.13;5100597;27;20440;-77
2024/02/18 08:11:38;;;;;;;18.60;7.13;;;;;;;3.89;100.00;102179.41;5096411;28;20472;-77
2024/02/18 08:14:12;;;;;;;18.00;7.05;;;;;;;3.94;100.00;102175.28;5093788;27;21323;-78
2024/02/18 08:16:40;;;;;;;18.88;7.30;;;;;;;3.79;100.00;102172.72;5098387;27;20441;-78
2024/02/18 08:19:13;;;;;;;22.80;7.70;;;;;;;3.94;100.00;102167.22;5093799;28;20447;-78
2024/02/18 08:21:48;;;;;;;18.10;7.30;;;;;;;3.92;100.00;102157.47;5099641;27;20432;-78
2024/02/18 08:24:16;;;;;;;20.10;7.47;;;;;;;3.86;100.00;102154.72;5095522;28;20436;-78
2024/02/18 08:26:44;;;;;;;18.73;7.63;;;;;;;3.91;100.00;102163.06;5096320;27;20420;-77
2024/02/18 08:29:17;;;;;;;22.00;7.63;;;;;;;3.95;100.00;102160.78;5092790;28;20439;-78
2024/02/18 08:31:46;;;;;;;19.27;8.07;;;;;;;3.92;100.00;102151.22;5094733;28;20441;-77
2024/02/18 08:34:21;;;;;;;21.05;8.68;;;;;;;3.99;100.00;102160.19;5097319;28;20420;-77
2024/02/18 08:36:56;;;;;;;24.65;8.48;;;;;;;4.14;100.00;102149.25;5099721;28;20426;-78
2024/02/18 08:39:29;;;;;;;22.52;8.98;;;;;;;4.04;100.00;102140.72;5101572;28;20927;-78
2024/02/18 08:42:02;;;;;;;23.58;9.18;;;;;;;4.12;100.00;102140.56;5097800;28;20412;-77
2024/02/18 08:44:36;;;;;;;23.38;8.20;;;;;;;4.14;100.00;102132.28;5101052;28;20424;-77
2024/02/18 08:47:05;;;;;;;26.50;8.63;;;;;;;4.16;100.00;102135.63;5116495;27;20443;-77
2024/02/18 08:49:38;;;;;;;21.75;9.00;;;;;;;4.21;100.00;102125.03;5103939;27;20758;-77
2024/02/18 08:52:13;;;;;;;24.48;9.98;;;;;;;4.33;100.00;102133.38;5095989;28;20418;-77
2024/02/18 08:54:42;;;;;;;24.90;9.63;;;;;;;4.33;100.00;102125.31;5098726;28;20435;-77
2024/02/18 08:57:16;;;;;;;25.77;10.32;;;;;;;4.37;100.00;102116.59;5096820;28;20431;-77
2024/02/18 08:59:49;;;;;;;26.50;10.40;;;;;;;4.48;100.00;102120.56;5099002;28;20418;-77
2024/02/18 09:02:18;;;;;;;25.42;10.07;;;;;;;4.39;100.00;102116.41;5100650;28;20420;-77
2024/02/18 09:04:51;;;;;;;26.33;10.77;;;;;;;4.50;100.00;102099.66;5094449;28;20419;-77
2024/02/18 09:07:26;;;;;;;27.80;10.48;;;;;;;4.67;100.00;102104.63;5098878;28;20424;-77
2024/02/18 09:09:54;;;;;;;24.00;9.93;;;;;;;4.61;100.00;102092.78;5096301;28;20420;-77
2024/02/18 09:12:22;;;;;;;20.67;9.60;;;;;;;4.52;100.00;102102.13;5102988;28;20396;-77
2024/02/18 09:14:58;;;;;;;23.15;10.00;;;;;;;4.56;100.00;102096.13;5097135;28;20414;-78
2024/02/18 09:17:27;;;;;;;25.05;10.18;;;;;;;4.59;100.00;102095.69;5094815;28;20416;-78
2024/02/18 09:20:02;;;;;;;25.80;10.93;;;;;;;4.53;100.00;102085.75;5095477;28;20426;-78
2024/02/18 09:22:37;;;;;;;24.10;10.45;;;;;;;4.58;100.00;102085.97;5100106;28;20428;-78
2024/02/18 09:25:10;;;;;;;24.30;10.43;;;;;;;4.73;100.00;102079.56;5094611;28;21385;-77
2024/02/18 09:27:43;;;;;;;26.63;10.60;;;;;;;4.87;100.00;102078.50;5097179;28;20416;-77
2024/02/18 09:30:17;;;;;;;29.27;11.37;;;;;;;4.88;100.00;102074.78;5092299;28;20438;-78
2024/02/18 09:32:50;;;;;;;23.45;10.23;;;;;;;5.00;100.00;102082.25;5097845;28;20445;-77
2024/02/18 09:35:18;;;;;;;29.08;10.75;;;;;;;5.01;100.00;102073.94;5098562;28;20408;-78
2024/02/18 09:37:53;;;;;;;25.02;10.35;;;;;;;5.15;100.00;102080.19;5107169;28;21233;-78
2024/02/18 09:40:26;;;;;;;26.23;10.75;;;;;;;5.13;100.00;102071.44;5093827;28;20434;-78
2024/02/18 09:43:00;;;;;;;27.17;10.43;;;;;;;5.25;100.00;102067.09;5092144;28;20455;-78
2024/02/18 09:45:36;;;;;;;26.23;10.30;;;;;;;5.25;100.00;102083.28;5100423;27;20900;-78
2024/02/18 09:48:14;;;;;;;24.60;10.10;;;;;;;5.33;100.00;102068.75;5098123;27;20430;-78
2024/02/18 09:50:48;;;;;;;24.83;10.48;;;;;;;5.26;100.00;102062.50;5099349;28;20456;-78
2024/02/18 09:53:23;;;;;;;23.98;10.35;;;;;;;5.27;100.00;102059.63;5094139;28;21085;-78
2024/02/18 09:55:51;;;;;;;23.30;9.95;;;;;;;5.38;100.00;102054.59;5109967;27;20430;-77
2024/02/18 09:58:24;;;;;;;22.65;10.48;;;;;;;5.40;100.00;102047.09;5098935;27;20422;-78
2024/02/18 10:01:00;;;;;;;22.67;10.07;;;;;;;5.53;100.00;102048.97;5090336;28;20433;-78
2024/02/18 10:03:34;;;;;;;24.55;10.52;;;;;;;5.44;100.00;102049.19;5097004;28;20415;-78
2024/02/18 10:06:08;;;;;;;23.90;9.93;;;;;;;5.51;100.00;102045.63;5091172;27;20420;-78
2024/02/18 10:08:43;;;;;;;22.90;10.23;;;;;;;5.54;100.00;102035.25;5092932;27;20501;-78
2024/02/18 10:11:17;;;;;;;23.10;9.98;;;;;;;5.72;100.00;102041.84;5094165;27;20421;-78
2024/02/18 10:13:51;;;;;;;21.52;9.98;;;;;;;5.69;100.00;102039.53;5100275;27;20425;-78
2024/02/18 10:16:24;;;;;;;24.30;10.23;;;;;;;5.74;100.00;102027.06;5095394;28;20426;-79
2024/02/18 10:18:57;;;;;;;22.98;10.68;;;;;;;5.85;100.00;102019.34;5078658;27;21846;-79
2024/02/18 10:21:31;;;;;;;24.23;10.70;;;;;;;6.07;100.00;102028.81;5087832;28;20435;-78
2024/02/18 10:24:09;;;;;;;23.98;10.55;;;;;;;6.00;100.00;102017.22;5080936;28;20428;-79
2024/02/18 10:26:37;;;;;;;24.13;10.30;;;;;;;6.02;100.00;102014.28;5072090;28;20464;-79
2024/02/18 10:29:12;;;;;;;22.20;10.10;;;;;;;6.20;100.00;102006.28;5081820;28;20424;-78
2024/02/18 10:31:45;;;;;;;23.00;9.88;;;;;;;6.32;100.00;102002.88;5077987;28;20424;-78
2024/02/18 10:34:14;;;;;;;21.67;10.57;;;;;;;6.26;100.00;101999.19;5080260;28;20761;-78
2024/02/18 10:36:47;;;;;;;23.85;10.15;;;;;;;6.32;100.00;102003.69;5080682;28;20436;-79
2024/02/18 10:39:26;;;;;;;23.75;10.85;;;;;;;6.40;100.00;101994.50;5079455;28;21272;-79
2024/02/18 10:42:03;;;;;;;25.00;10.80;;;;;;;6.40;100.00;101987.22;5077705;28;20511;-79
2024/02/18 10:44:40;;;;;;;26.48;10.63;;;;;;;6.55;100.00;101980.66;5076293;28;20420;-79
2024/02/18 10:47:16;;;;;;;25.00;10.75;;;;;;;6.63;100.00;101961.47;5076116;27;20424;-78
2024/02/18 10:49:55;;;;;;;25.88;10.98;;;;;;;6.76;100.00;101972.13;5081035;27;20428;-78
2024/02/18 10:52:40;;;;;;;24.45;11.13;;;;;;;6.49;100.00;101965.31;5073830;28;20427;-78
2024/02/18 10:55:19;;;;;;;23.92;10.35;;;;;;;6.62;100.00;101957.91;5075174;28;20416;-78
2024/02/18 10:58:04;;;;;;;28.88;12.90;;;;;;;6.61;100.00;101958.13;5078939;28;20420;-78
2024/02/18 11:00:33;;;;;;;27.52;13.10;;;;;;;6.59;100.00;101957.53;5076533;28;20424;-78
2024/02/18 11:03:11;;;;;;;26.13;11.85;;;;;;;6.60;100.00;101946.50;5083831;28;21658;-79
2024/02/18 11:05:45;;;;;;;29.05;13.45;;;;;;;6.74;100.00;101940.94;5075485;28;20463;-78
2024/02/18 11:08:13;;;;;;;28.95;13.55;;;;;;;6.76;100.00;101942.38;5078152;28;20788;-78
2024/02/18 11:10:48;;;;;;;22.75;10.95;;;;;;;6.82;100.00;101935.25;5097642;27;20989;-78
2024/02/18 11:13:19;;;;;;;25.17;10.98;;;;;;;6.87;100.00;101935.41;5086957;28;20448;-78
2024/02/18 11:15:47;;;;;;;25.23;10.77;;;;;;;6.78;100.00;101932.16;5075967;27;20430;-78
2024/02/18 11:18:22;;;;;;;21.15;10.55;;;;;;;6.83;100.00;101925.25;5076418;28;20428;-79
2024/02/18 11:20:57;;;;;;;22.85;11.18;;;;;;;6.78;100.00;101915.94;5073062;28;20801;-79
2024/02/18 11:23:32;;;;;;;23.75;11.40;;;;;;;6.87;100.00;101918.34;5079094;27;20923;-79
2024/02/18 11:26:02;;;;;;;24.52;10.35;;;;;;;6.91;100.00;101912.25;5075685;28;20420;-79
2024/02/18 11:28:35;;;;;;;23.67;10.93;;;;;;;6.97;100.00;101897.00;5075725;28;20920;-79
2024/02/18 11:31:10;;;;;;;24.33;11.30;;;;;;;6.99;100.00;101903.03;5083633;28;20432;-79
2024/02/18 11:33:43;;;;;;;24.05;11.20;;;;;;;7.06;100.00;101892.13;5081310;28;20428;-78
2024/02/18 11:36:17;;;;;;;25.27;11.88;;;;;;;7.07;100.00;101893.75;5079514;28;20424;-79
2024/02/18 11:38:53;;;;;;;22.80;11.65;;;;;;;7.07;100.00;101888.34;5066625;28;21227;-78
2024/02/18 11:41:30;;;;;;;25.50;11.13;;;;;;;7.14;100.00;101886.41;5078328;28;20432;-78